createdAt,value
2022-09-12T00:00:34.693Z,11.70
2022-09-12T00:05:37.580Z,11.80
2022-09-12T00:10:40.325Z,11.80
2022-09-12T00:15:52.998Z,11.70
2022-09-12T00:20:55.746Z,11.60
2022-09-12T00:25:58.409Z,11.60
2022-09-12T00:31:01.111Z,11.60
2022-09-12T00:36:03.825Z,11.50
2022-09-12T00:41:06.492Z,11.50
2022-09-12T00:46:09.177Z,11.40
2022-09-12T00:51:11.838Z,11.40
2022-09-12T00:56:15.277Z,11.40
2022-09-12T01:01:18.045Z,11.50
2022-09-12T01:06:20.812Z,11.40
2022-09-12T01:11:23.669Z,11.40
2022-09-12T01:16:26.620Z,11.40
2022-09-12T01:21:29.764Z,11.30
2022-09-12T01:26:32.441Z,11.30
2022-09-12T01:31:35.307Z,11.30
2022-09-12T01:36:38.593Z,11.20
2022-09-12T01:41:41.275Z,11.00
2022-09-12T01:46:44.196Z,11.00
2022-09-12T01:51:47.314Z,11.00
2022-09-12T01:56:50.013Z,11.00
2022-09-12T02:01:54.989Z,11.00
2022-09-12T02:06:57.801Z,10.80
2022-09-12T02:12:00.602Z,10.90
2022-09-12T02:17:03.587Z,10.70
2022-09-12T02:22:06.350Z,10.60
2022-09-12T02:27:09.100Z,10.70
2022-09-12T02:32:11.902Z,10.70
2022-09-12T02:37:14.719Z,10.70
2022-09-12T02:42:17.733Z,10.70
2022-09-12T02:47:20.449Z,10.60
2022-09-12T02:52:23.180Z,10.60
2022-09-12T02:57:26.014Z,10.60
2022-09-12T03:02:28.872Z,10.70
2022-09-12T03:07:31.704Z,10.60
2022-09-12T03:12:34.404Z,10.60
2022-09-12T03:17:37.437Z,10.50
2022-09-12T03:22:40.152Z,10.50
2022-09-12T03:27:42.856Z,10.40
2022-09-12T03:32:45.747Z,10.40
2022-09-12T03:37:48.582Z,10.50
2022-09-12T03:42:51.730Z,10.50
2022-09-12T03:47:54.494Z,10.40
2022-09-12T03:52:57.211Z,10.30
2022-09-12T03:57:59.867Z,10.30
2022-09-12T04:03:03.189Z,10.30
2022-09-12T04:08:05.892Z,10.30
2022-09-12T04:13:08.631Z,10.30
2022-09-12T04:18:11.290Z,10.20
2022-09-12T04:23:13.980Z,10.10
2022-09-12T04:28:16.681Z,10.10
2022-09-12T04:33:19.390Z,10.00
2022-09-12T04:38:22.280Z,10.00
2022-09-12T04:43:24.978Z,10.00
2022-09-12T04:48:27.776Z,9.90
2022-09-12T04:53:31.121Z,10.00
2022-09-12T04:58:33.967Z,10.00
2022-09-12T05:03:38.970Z,10.00
2022-09-12T05:08:42.034Z,10.00
2022-09-12T05:13:44.729Z,10.20
2022-09-12T05:18:47.576Z,10.20
2022-09-12T05:23:50.414Z,10.40
2022-09-12T05:28:53.356Z,10.50
2022-09-12T05:33:56.158Z,10.60
2022-09-12T05:38:59.113Z,10.80
2022-09-12T05:44:01.970Z,11.00
2022-09-12T05:49:05.552Z,11.20
2022-09-12T05:54:08.754Z,11.40
2022-09-12T05:59:12.205Z,11.70
2022-09-12T06:04:15.219Z,11.40
2022-09-12T06:09:18.005Z,12.00
2022-09-12T06:14:20.710Z,12.40
2022-09-12T06:19:25.224Z,12.60
2022-09-12T06:24:28.237Z,12.90
2022-09-12T06:29:32.598Z,13.20
2022-09-12T06:34:36.506Z,13.40
2022-09-12T06:39:39.334Z,13.50
2022-09-12T06:44:42.412Z,13.80
2022-09-12T06:49:45.325Z,14.00
2022-09-12T06:54:48.125Z,14.30
2022-09-12T06:59:51.003Z,14.40
2022-09-12T07:04:53.707Z,14.70
2022-09-12T07:09:57.707Z,14.80
2022-09-12T07:15:01.078Z,15.00
2022-09-12T07:20:10.533Z,15.10
2022-09-12T07:25:13.467Z,15.50
2022-09-12T07:30:16.309Z,15.70
2022-09-12T07:35:19.136Z,15.90
2022-09-12T07:55:32.854Z,16.40
2022-09-12T08:00:37.865Z,16.40
2022-09-12T08:05:40.906Z,16.50
2022-09-12T08:10:43.611Z,16.70
2022-09-12T08:15:46.384Z,16.90
2022-09-12T08:20:49.146Z,17.00
2022-09-12T09:16:25.868Z,18.40
2022-09-12T09:21:29.234Z,18.40
2022-09-12T09:26:32.534Z,18.40
2022-09-12T09:31:35.197Z,18.40
2022-09-12T09:36:37.907Z,18.70
2022-09-12T09:41:40.583Z,18.80
2022-09-12T09:46:43.282Z,18.80
2022-09-12T09:51:46.083Z,18.80
2022-09-12T09:56:48.759Z,18.70
2022-09-12T10:01:51.553Z,18.80
2022-09-12T10:06:54.463Z,18.90
2022-09-12T10:11:57.331Z,19.20
2022-09-12T10:17:01.642Z,19.20
2022-09-12T10:22:04.856Z,19.40
2022-09-12T10:27:08.105Z,19.30
2022-09-12T10:32:12.776Z,19.20
2022-09-12T10:37:15.502Z,19.40
2022-09-12T10:42:22.831Z,19.30
2022-09-12T10:47:26.092Z,19.40
2022-09-12T10:52:29.560Z,19.60
2022-09-12T10:57:32.244Z,19.90
2022-09-12T11:02:35.017Z,20.00
2022-09-12T11:07:37.836Z,19.90
2022-09-12T11:12:40.675Z,19.80
2022-09-12T11:17:44.293Z,20.00
2022-09-12T11:22:47.385Z,20.00
2022-09-12T11:27:50.098Z,20.00
2022-09-12T11:32:52.807Z,20.00
2022-09-12T11:37:55.671Z,20.10
2022-09-12T11:42:58.470Z,20.30
2022-09-12T11:48:01.307Z,20.50
2022-09-12T11:53:04.078Z,20.50
2022-09-12T11:58:07.024Z,20.30
2022-09-12T12:03:10.160Z,20.30
2022-09-12T12:08:14.673Z,20.50
2022-09-12T12:13:18.136Z,20.80
2022-09-12T12:18:20.949Z,20.90
2022-09-12T12:23:23.871Z,20.80
2022-09-12T12:28:26.631Z,20.90
2022-09-12T12:33:30.108Z,20.90
2022-09-12T12:38:33.365Z,21.00
2022-09-12T12:43:36.188Z,21.10
2022-09-12T12:48:39.237Z,21.10
2022-09-12T12:53:42.417Z,21.30
2022-09-12T12:58:45.238Z,21.50
2022-09-12T13:03:48.738Z,21.60
2022-09-12T13:08:51.420Z,21.60
2022-09-12T13:13:54.273Z,21.60
2022-09-12T13:18:57.103Z,21.70
2022-09-12T13:23:59.900Z,21.70
2022-09-12T13:29:02.712Z,21.70
2022-09-12T13:34:05.593Z,21.80
2022-09-12T13:39:08.361Z,21.80
2022-09-12T13:44:14.233Z,21.80
2022-09-12T13:49:17.046Z,21.90
2022-09-12T13:54:24.352Z,21.80
2022-09-12T13:59:37.478Z,21.90
2022-09-12T14:04:58.075Z,21.90
2022-09-12T14:10:00.826Z,21.90
2022-09-12T14:15:12.126Z,22.00
2022-09-12T14:20:14.823Z,21.90
2022-09-12T14:25:17.543Z,21.80
2022-09-12T14:30:20.449Z,22.00
2022-09-12T14:35:24.216Z,21.90
2022-09-12T14:40:27.119Z,21.80
2022-09-12T14:45:29.938Z,21.60
2022-09-12T14:50:32.947Z,21.60
2022-09-12T14:55:35.667Z,21.60
2022-09-12T15:00:38.458Z,21.50
2022-09-12T15:05:41.454Z,21.40
2022-09-12T15:10:44.181Z,21.40
2022-09-12T15:15:47.059Z,21.40
2022-09-12T15:20:53.437Z,21.40
2022-09-12T15:25:56.131Z,21.40
2022-09-12T15:30:59.284Z,21.40
2022-09-12T15:36:02.017Z,21.60
2022-09-12T15:41:04.737Z,21.70
2022-09-12T15:46:07.545Z,21.70
2022-09-12T15:51:14.613Z,21.60
2022-09-12T16:01:23.016Z,21.00
2022-09-12T16:06:25.967Z,21.30
2022-09-12T16:11:30.032Z,21.10
2022-09-12T16:16:32.806Z,21.00
2022-09-12T16:21:35.928Z,20.80
2022-09-12T16:26:38.756Z,20.70
2022-09-12T16:31:41.903Z,20.70
2022-09-12T16:36:45.292Z,20.30
2022-09-12T16:41:48.020Z,20.20
2022-09-12T16:46:51.196Z,20.10
2022-09-12T16:51:54.300Z,20.10
2022-09-12T16:56:57.013Z,19.90
2022-09-12T17:02:00.226Z,19.80
2022-09-12T17:07:03.429Z,19.60
2022-09-12T17:12:06.393Z,19.60
2022-09-12T17:17:15.734Z,19.40
2022-09-12T17:22:18.884Z,19.40
2022-09-12T17:27:21.772Z,19.20
2022-09-12T17:32:24.682Z,19.10
2022-09-12T17:37:28.077Z,19.00
2022-09-12T17:42:31.938Z,18.80
2022-09-12T17:47:34.729Z,18.80
2022-09-12T17:52:37.444Z,18.50
2022-09-12T17:57:40.565Z,18.30
2022-09-12T18:02:43.913Z,18.10
2022-09-12T18:07:46.848Z,17.80
2022-09-12T18:12:50.874Z,17.90
2022-09-12T18:17:54.823Z,17.80
2022-09-12T18:28:02.068Z,17.50
2022-09-12T18:33:06.943Z,17.20
2022-09-12T18:38:09.662Z,17.30
2022-09-12T18:43:12.553Z,17.00
2022-09-12T18:48:15.487Z,17.00
2022-09-12T18:53:18.497Z,16.90
2022-09-12T18:58:21.227Z,16.70
2022-09-12T19:08:27.494Z,16.40
2022-09-12T19:13:30.188Z,16.30
2022-09-12T19:18:34.699Z,16.20
2022-09-12T19:23:37.514Z,16.20
2022-09-12T19:28:40.289Z,16.10
2022-09-12T19:33:43.021Z,16.10
2022-09-12T19:38:46.622Z,15.90
2022-09-12T19:43:52.344Z,15.80
2022-09-12T19:48:55.460Z,15.70
2022-09-12T19:53:58.252Z,15.60
2022-09-12T19:59:01.175Z,15.40
2022-09-12T20:04:03.959Z,15.30
2022-09-12T20:09:07.371Z,15.20
2022-09-12T20:14:10.101Z,15.10
2022-09-12T20:19:13.074Z,15.00
2022-09-12T20:24:15.972Z,14.80
2022-09-12T20:29:18.777Z,14.80
2022-09-12T20:34:21.532Z,14.70
2022-09-12T20:39:24.328Z,14.70
2022-09-12T20:44:27.526Z,14.60
2022-09-12T20:49:35.849Z,14.50
2022-09-12T20:54:38.527Z,14.50
2022-09-12T20:59:42.550Z,14.50
2022-09-12T21:04:45.521Z,14.50
2022-09-12T21:09:49.468Z,14.50
2022-09-12T21:14:53.013Z,14.30
2022-09-12T21:19:56.347Z,14.30
2022-09-12T21:24:59.210Z,14.30
2022-09-12T21:30:03.434Z,14.20
2022-09-12T21:35:06.207Z,14.50
2022-09-12T21:40:09.464Z,14.00
2022-09-12T21:45:12.409Z,13.90
2022-09-12T21:50:15.093Z,13.90
2022-09-12T21:55:18.133Z,13.90
2022-09-12T22:00:20.929Z,13.70
2022-09-12T22:05:24.910Z,13.60
2022-09-12T22:10:28.365Z,13.50
2022-09-12T22:15:46.426Z,13.50
2022-09-12T22:25:52.366Z,13.70
2022-09-12T22:30:55.373Z,13.60
2022-09-12T22:35:58.233Z,13.60
2022-09-12T22:41:01.065Z,13.20
2022-09-12T22:46:03.770Z,13.10
2022-09-12T22:51:06.506Z,13.70
2022-09-12T22:56:09.163Z,13.40
2022-09-12T23:01:12.533Z,13.30
2022-09-12T23:06:25.610Z,13.30
2022-09-12T23:11:28.333Z,13.30
2022-09-12T23:16:32.102Z,13.30
2022-09-12T23:21:34.945Z,13.10
2022-09-12T23:26:38.042Z,13.10
2022-09-12T23:31:40.766Z,13.00
2022-09-12T23:36:43.610Z,12.90
2022-09-12T23:41:46.305Z,12.90
2022-09-12T23:46:49.003Z,12.80
2022-09-12T23:51:51.725Z,12.90
2022-09-12T23:56:55.563Z,12.90
